sensor_id;sensor_type;location;lat;lon;timestamp;temperature;humidity
46139;DHT22;32398;49.112;8.598;2023-04-03T00:01:21;8.00;82.10
46139;DHT22;32398;49.112;8.598;2023-04-03T00:03:48;8.00;82.20
46139;DHT22;32398;49.112;8.598;2023-04-03T00:06:15;8.00;82.10
46139;DHT22;32398;49.112;8.598;2023-04-03T00:08:42;8.00;82.10
46139;DHT22;32398;49.112;8.598;2023-04-03T00:11:08;8.00;82.00
46139;DHT22;32398;49.112;8.598;2023-04-03T00:13:36;7.90;82.00
46139;DHT22;32398;49.112;8.598;2023-04-03T00:16:04;7.90;82.10
46139;DHT22;32398;49.112;8.598;2023-04-03T00:18:31;7.90;82.00
46139;DHT22;32398;49.112;8.598;2023-04-03T00:20:57;7.90;81.90
46139;DHT22;32398;49.112;8.598;2023-04-03T00:23:25;7.90;81.80
46139;DHT22;32398;49.112;8.598;2023-04-03T00:25:51;7.90;81.70
46139;DHT22;32398;49.112;8.598;2023-04-03T00:28:18;7.90;81.70
46139;DHT22;32398;49.112;8.598;2023-04-03T00:30:47;7.80;81.60
46139;DHT22;32398;49.112;8.598;2023-04-03T00:33:14;7.80;81.60
46139;DHT22;32398;49.112;8.598;2023-04-03T00:35:41;7.80;81.60
46139;DHT22;32398;49.112;8.598;2023-04-03T00:38:07;7.80;81.60
46139;DHT22;32398;49.112;8.598;2023-04-03T00:40:36;7.80;81.60
46139;DHT22;32398;49.112;8.598;2023-04-03T00:43:05;7.80;81.60
46139;DHT22;32398;49.112;8.598;2023-04-03T00:45:37;7.70;81.60
46139;DHT22;32398;49.112;8.598;2023-04-03T00:48:05;7.80;81.60
46139;DHT22;32398;49.112;8.598;2023-04-03T00:50:34;7.70;81.40
46139;DHT22;32398;49.112;8.598;2023-04-03T00:53:01;7.70;81.50
46139;DHT22;32398;49.112;8.598;2023-04-03T00:55:29;7.70;81.40
46139;DHT22;32398;49.112;8.598;2023-04-03T00:57:56;7.70;81.20
46139;DHT22;32398;49.112;8.598;2023-04-03T01:00:23;7.70;81.30
46139;DHT22;32398;49.112;8.598;2023-04-03T01:02:51;7.70;81.30
46139;DHT22;32398;49.112;8.598;2023-04-03T01:05:19;7.70;81.40
46139;DHT22;32398;49.112;8.598;2023-04-03T01:07:46;7.70;81.40
46139;DHT22;32398;49.112;8.598;2023-04-03T01:10:14;7.60;81.30
46139;DHT22;32398;49.112;8.598;2023-04-03T01:12:41;7.60;81.40
46139;DHT22;32398;49.112;8.598;2023-04-03T01:15:10;7.60;81.40
46139;DHT22;32398;49.112;8.598;2023-04-03T01:17:38;7.60;81.50
46139;DHT22;32398;49.112;8.598;2023-04-03T01:22:52;7.60;81.50
46139;DHT22;32398;49.112;8.598;2023-04-03T01:25:22;7.60;81.50
46139;DHT22;32398;49.112;8.598;2023-04-03T01:27:49;7.50;81.50
46139;DHT22;32398;49.112;8.598;2023-04-03T01:30:16;7.50;81.60
46139;DHT22;32398;49.112;8.598;2023-04-03T01:32:45;7.60;81.60
46139;DHT22;32398;49.112;8.598;2023-04-03T01:35:11;7.50;81.60
46139;DHT22;32398;49.112;8.598;2023-04-03T01:37:38;7.50;81.60
46139;DHT22;32398;49.112;8.598;2023-04-03T01:40:05;7.50;81.60
46139;DHT22;32398;49.112;8.598;2023-04-03T01:42:32;7.50;81.70
46139;DHT22;32398;49.112;8.598;2023-04-03T01:44:59;7.50;81.80
46139;DHT22;32398;49.112;8.598;2023-04-03T01:47:25;7.40;81.70
46139;DHT22;32398;49.112;8.598;2023-04-03T01:49:53;7.50;81.80
46139;DHT22;32398;49.112;8.598;2023-04-03T01:52:20;7.40;81.80
46139;DHT22;32398;49.112;8.598;2023-04-03T01:54:47;7.40;81.80
46139;DHT22;32398;49.112;8.598;2023-04-03T01:57:13;7.40;81.90
46139;DHT22;32398;49.112;8.598;2023-04-03T01:59:40;7.40;81.90
46139;DHT22;32398;49.112;8.598;2023-04-03T02:02:07;7.40;81.90
46139;DHT22;32398;49.112;8.598;2023-04-03T02:04:33;7.30;81.90
46139;DHT22;32398;49.112;8.598;2023-04-03T02:07:01;7.40;82.00
46139;DHT22;32398;49.112;8.598;2023-04-03T02:09:28;7.30;82.00
46139;DHT22;32398;49.112;8.598;2023-04-03T02:11:54;7.30;82.00
46139;DHT22;32398;49.112;8.598;2023-04-03T02:14:21;7.30;81.90
46139;DHT22;32398;49.112;8.598;2023-04-03T02:16:48;7.30;82.00
46139;DHT22;32398;49.112;8.598;2023-04-03T02:19:15;7.30;82.00
46139;DHT22;32398;49.112;8.598;2023-04-03T02:21:41;7.30;82.00
46139;DHT22;32398;49.112;8.598;2023-04-03T02:24:09;7.30;82.00
46139;DHT22;32398;49.112;8.598;2023-04-03T02:26:36;7.20;82.00
46139;DHT22;32398;49.112;8.598;2023-04-03T02:29:03;7.30;82.10
46139;DHT22;32398;49.112;8.598;2023-04-03T02:31:29;7.20;82.20
46139;DHT22;32398;49.112;8.598;2023-04-03T02:33:56;7.20;82.20
46139;DHT22;32398;49.112;8.598;2023-04-03T02:36:22;7.20;82.30
46139;DHT22;32398;49.112;8.598;2023-04-03T02:38:49;7.20;82.30
46139;DHT22;32398;49.112;8.598;2023-04-03T02:41:17;7.20;82.40
46139;DHT22;32398;49.112;8.598;2023-04-03T02:43:43;7.20;82.40
46139;DHT22;32398;49.112;8.598;2023-04-03T02:46:10;7.10;82.50
46139;DHT22;32398;49.112;8.598;2023-04-03T02:48:37;7.10;82.50
46139;DHT22;32398;49.112;8.598;2023-04-03T02:51:03;7.10;82.50
46139;DHT22;32398;49.112;8.598;2023-04-03T02:53:30;7.10;82.60
46139;DHT22;32398;49.112;8.598;2023-04-03T02:55:56;7.10;82.70
46139;DHT22;32398;49.112;8.598;2023-04-03T02:58:24;7.10;82.80
46139;DHT22;32398;49.112;8.598;2023-04-03T03:00:51;7.10;82.80
46139;DHT22;32398;49.112;8.598;2023-04-03T03:03:17;7.10;82.80
46139;DHT22;32398;49.112;8.598;2023-04-03T03:05:44;7.00;82.70
46139;DHT22;32398;49.112;8.598;2023-04-03T03:08:10;7.00;82.80
46139;DHT22;32398;49.112;8.598;2023-04-03T03:10:37;7.00;82.80
46139;DHT22;32398;49.112;8.598;2023-04-03T03:13:04;7.00;82.70
46139;DHT22;32398;49.112;8.598;2023-04-03T03:15:31;6.90;82.70
46139;DHT22;32398;49.112;8.598;2023-04-03T03:17:58;7.00;82.70
46139;DHT22;32398;49.112;8.598;2023-04-03T03:20:25;6.90;82.60
46139;DHT22;32398;49.112;8.598;2023-04-03T03:22:51;6.90;82.60
46139;DHT22;32398;49.112;8.598;2023-04-03T03:25:18;6.90;82.60
46139;DHT22;32398;49.112;8.598;2023-04-03T03:27:44;6.90;82.60
46139;DHT22;32398;49.112;8.598;2023-04-03T03:30:11;6.80;82.40
46139;DHT22;32398;49.112;8.598;2023-04-03T03:32:39;6.90;82.50
46139;DHT22;32398;49.112;8.598;2023-04-03T03:35:06;6.80;82.40
46139;DHT22;32398;49.112;8.598;2023-04-03T03:37:32;6.80;82.40
46139;DHT22;32398;49.112;8.598;2023-04-03T03:39:59;6.80;82.40
46139;DHT22;32398;49.112;8.598;2023-04-03T03:42:26;6.80;82.50
46139;DHT22;32398;49.112;8.598;2023-04-03T03:44:52;6.80;82.50
46139;DHT22;32398;49.112;8.598;2023-04-03T03:47:19;6.80;82.50
46139;DHT22;32398;49.112;8.598;2023-04-03T03:49:47;6.80;82.50
46139;DHT22;32398;49.112;8.598;2023-04-03T03:52:13;6.70;82.40
46139;DHT22;32398;49.112;8.598;2023-04-03T03:54:40;6.80;82.60
46139;DHT22;32398;49.112;8.598;2023-04-03T03:57:07;6.70;82.50
46139;DHT22;32398;49.112;8.598;2023-04-03T03:59:33;6.70;82.60
46139;DHT22;32398;49.112;8.598;2023-04-03T04:02:00;6.70;82.70
46139;DHT22;32398;49.112;8.598;2023-04-03T04:04:27;6.70;82.70
46139;DHT22;32398;49.112;8.598;2023-04-03T04:06:55;6.70;82.70
46139;DHT22;32398;49.112;8.598;2023-04-03T04:09:21;6.70;82.70
46139;DHT22;32398;49.112;8.598;2023-04-03T04:11:48;6.70;83.40
46139;DHT22;32398;49.112;8.598;2023-04-03T04:14:14;6.70;82.70
46139;DHT22;32398;49.112;8.598;2023-04-03T04:16:41;6.60;82.70
46139;DHT22;32398;49.112;8.598;2023-04-03T04:19:08;6.60;82.80
46139;DHT22;32398;49.112;8.598;2023-04-03T04:21:34;6.60;82.90
46139;DHT22;32398;49.112;8.598;2023-04-03T04:24:02;6.60;82.80
46139;DHT22;32398;49.112;8.598;2023-04-03T04:26:29;6.60;82.80
46139;DHT22;32398;49.112;8.598;2023-04-03T04:28:56;6.60;82.90
46139;DHT22;32398;49.112;8.598;2023-04-03T04:31:22;6.60;82.90
46139;DHT22;32398;49.112;8.598;2023-04-03T04:33:49;6.50;82.90
46139;DHT22;32398;49.112;8.598;2023-04-03T04:36:15;6.60;83.00
46139;DHT22;32398;49.112;8.598;2023-04-03T04:38:42;6.60;83.10
46139;DHT22;32398;49.112;8.598;2023-04-03T04:41:10;6.60;83.20
46139;DHT22;32398;49.112;8.598;2023-04-03T04:43:36;6.50;83.20
46139;DHT22;32398;49.112;8.598;2023-04-03T04:46:03;6.50;83.20
46139;DHT22;32398;49.112;8.598;2023-04-03T04:48:30;6.50;83.30
46139;DHT22;32398;49.112;8.598;2023-04-03T04:50:57;6.40;83.20
46139;DHT22;32398;49.112;8.598;2023-04-03T04:53:23;6.40;83.30
46139;DHT22;32398;49.112;8.598;2023-04-03T04:55:50;6.40;83.30
46139;DHT22;32398;49.112;8.598;2023-04-03T04:58:18;6.40;83.30
46139;DHT22;32398;49.112;8.598;2023-04-03T05:00:45;6.40;83.30
46139;DHT22;32398;49.112;8.598;2023-04-03T05:03:11;6.40;83.30
46139;DHT22;32398;49.112;8.598;2023-04-03T05:05:38;6.30;83.20
46139;DHT22;32398;49.112;8.598;2023-04-03T05:08:05;6.30;83.10
46139;DHT22;32398;49.112;8.598;2023-04-03T05:10:33;6.30;83.10
46139;DHT22;32398;49.112;8.598;2023-04-03T05:13:00;6.30;83.10
46139;DHT22;32398;49.112;8.598;2023-04-03T05:15:28;6.30;83.10
46139;DHT22;32398;49.112;8.598;2023-04-03T05:17:54;6.20;83.10
46139;DHT22;32398;49.112;8.598;2023-04-03T05:20:21;6.20;83.00
46139;DHT22;32398;49.112;8.598;2023-04-03T05:22:48;6.20;83.00
46139;DHT22;32398;49.112;8.598;2023-04-03T05:25:14;6.20;83.00
46139;DHT22;32398;49.112;8.598;2023-04-03T05:27:41;6.20;83.00
46139;DHT22;32398;49.112;8.598;2023-04-03T05:30:08;6.20;83.10
46139;DHT22;32398;49.112;8.598;2023-04-03T05:32:36;6.10;83.00
46139;DHT22;32398;49.112;8.598;2023-04-03T05:35:02;6.10;83.10
46139;DHT22;32398;49.112;8.598;2023-04-03T05:37:29;6.10;82.90
46139;DHT22;32398;49.112;8.598;2023-04-03T05:39:56;6.10;83.70
46139;DHT22;32398;49.112;8.598;2023-04-03T05:42:22;6.00;82.90
46139;DHT22;32398;49.112;8.598;2023-04-03T05:44:49;6.00;82.90
46139;DHT22;32398;49.112;8.598;2023-04-03T05:47:15;6.00;82.90
46139;DHT22;32398;49.112;8.598;2023-04-03T05:49:43;5.90;77.90
46139;DHT22;32398;49.112;8.598;2023-04-03T05:52:11;5.80;78.10
46139;DHT22;32398;49.112;8.598;2023-04-03T05:54:44;5.70;79.20
46139;DHT22;32398;49.112;8.598;2023-04-03T05:57:13;5.70;79.90
46139;DHT22;32398;49.112;8.598;2023-04-03T05:59:39;5.70;80.30
46139;DHT22;32398;49.112;8.598;2023-04-03T06:02:06;5.70;80.60
46139;DHT22;32398;49.112;8.598;2023-04-03T06:04:33;5.70;80.80
46139;DHT22;32398;49.112;8.598;2023-04-03T06:07:01;5.70;81.00
46139;DHT22;32398;49.112;8.598;2023-04-03T06:09:27;5.80;81.20
46139;DHT22;32398;49.112;8.598;2023-04-03T06:11:55;5.80;81.30
46139;DHT22;32398;49.112;8.598;2023-04-03T06:14:23;5.80;81.40
46139;DHT22;32398;49.112;8.598;2023-04-03T06:16:50;5.80;81.60
46139;DHT22;32398;49.112;8.598;2023-04-03T06:19:17;5.80;81.60
46139;DHT22;32398;49.112;8.598;2023-04-03T06:21:44;5.90;81.80
46139;DHT22;32398;49.112;8.598;2023-04-03T06:24:12;5.90;81.80
46139;DHT22;32398;49.112;8.598;2023-04-03T06:26:40;5.90;81.90
46139;DHT22;32398;49.112;8.598;2023-04-03T06:29:06;5.90;82.00
46139;DHT22;32398;49.112;8.598;2023-04-03T06:31:33;5.80;82.00
46139;DHT22;32398;49.112;8.598;2023-04-03T06:34:01;5.90;82.10
46139;DHT22;32398;49.112;8.598;2023-04-03T06:36:28;5.90;82.20
46139;DHT22;32398;49.112;8.598;2023-04-03T06:38:55;5.80;82.80
46139;DHT22;32398;49.112;8.598;2023-04-03T06:41:23;5.90;82.20
46139;DHT22;32398;49.112;8.598;2023-04-03T06:43:51;5.90;82.20
46139;DHT22;32398;49.112;8.598;2023-04-03T06:46:19;5.90;82.20
46139;DHT22;32398;49.112;8.598;2023-04-03T06:48:46;5.90;82.20
46139;DHT22;32398;49.112;8.598;2023-04-03T06:51:19;5.80;82.20
46139;DHT22;32398;49.112;8.598;2023-04-03T06:53:46;5.90;83.10
46139;DHT22;32398;49.112;8.598;2023-04-03T06:56:13;5.90;82.30
46139;DHT22;32398;49.112;8.598;2023-04-03T06:58:41;5.80;82.30
46139;DHT22;32398;49.112;8.598;2023-04-03T07:01:08;5.80;82.40
46139;DHT22;32398;49.112;8.598;2023-04-03T07:03:36;5.80;82.30
46139;DHT22;32398;49.112;8.598;2023-04-03T07:06:02;5.90;82.30
46139;DHT22;32398;49.112;8.598;2023-04-03T07:08:29;5.90;82.30
46139;DHT22;32398;49.112;8.598;2023-04-03T07:10:56;5.90;82.20
46139;DHT22;32398;49.112;8.598;2023-04-03T07:13:22;5.80;82.10
46139;DHT22;32398;49.112;8.598;2023-04-03T07:15:50;5.90;82.20
46139;DHT22;32398;49.112;8.598;2023-04-03T07:18:18;5.80;82.10
46139;DHT22;32398;49.112;8.598;2023-04-03T07:20:44;5.80;82.10
46139;DHT22;32398;49.112;8.598;2023-04-03T07:23:11;5.80;82.10
46139;DHT22;32398;49.112;8.598;2023-04-03T07:25:41;5.80;82.10
46139;DHT22;32398;49.112;8.598;2023-04-03T07:28:08;5.80;82.10
46139;DHT22;32398;49.112;8.598;2023-04-03T07:30:35;5.80;82.20
46139;DHT22;32398;49.112;8.598;2023-04-03T07:33:09;5.80;82.20
46139;DHT22;32398;49.112;8.598;2023-04-03T07:35:35;5.80;82.30
46139;DHT22;32398;49.112;8.598;2023-04-03T07:38:02;5.80;82.40
46139;DHT22;32398;49.112;8.598;2023-04-03T07:40:29;5.80;82.40
46139;DHT22;32398;49.112;8.598;2023-04-03T07:42:55;5.80;82.50
46139;DHT22;32398;49.112;8.598;2023-04-03T07:45:23;5.80;82.50
46139;DHT22;32398;49.112;8.598;2023-04-03T07:47:49;5.80;82.50
46139;DHT22;32398;49.112;8.598;2023-04-03T07:50:17;5.80;82.60
46139;DHT22;32398;49.112;8.598;2023-04-03T07:52:44;5.80;82.70
46139;DHT22;32398;49.112;8.598;2023-04-03T07:55:11;5.80;82.70
46139;DHT22;32398;49.112;8.598;2023-04-03T07:57:38;5.80;82.70
46139;DHT22;32398;49.112;8.598;2023-04-03T08:00:05;5.80;82.80
46139;DHT22;32398;49.112;8.598;2023-04-03T08:02:32;5.80;82.70
46139;DHT22;32398;49.112;8.598;2023-04-03T08:04:59;5.80;82.70
46139;DHT22;32398;49.112;8.598;2023-04-03T08:07:27;5.80;82.70
46139;DHT22;32398;49.112;8.598;2023-04-03T08:09:53;5.80;82.70
46139;DHT22;32398;49.112;8.598;2023-04-03T08:12:20;5.80;82.70
46139;DHT22;32398;49.112;8.598;2023-04-03T08:14:47;5.90;82.70
46139;DHT22;32398;49.112;8.598;2023-04-03T08:17:13;5.90;82.70
46139;DHT22;32398;49.112;8.598;2023-04-03T08:19:40;5.90;82.70
46139;DHT22;32398;49.112;8.598;2023-04-03T08:22:06;5.90;82.70
46139;DHT22;32398;49.112;8.598;2023-04-03T08:24:34;5.90;82.60
46139;DHT22;32398;49.112;8.598;2023-04-03T08:27:01;5.90;82.60
46139;DHT22;32398;49.112;8.598;2023-04-03T08:29:27;5.90;82.50
46139;DHT22;32398;49.112;8.598;2023-04-03T08:31:54;5.90;82.40
46139;DHT22;32398;49.112;8.598;2023-04-03T08:34:21;6.00;82.30
46139;DHT22;32398;49.112;8.598;2023-04-03T08:36:47;6.00;82.20
46139;DHT22;32398;49.112;8.598;2023-04-03T08:39:14;6.10;82.20
46139;DHT22;32398;49.112;8.598;2023-04-03T08:41:42;6.10;82.00
46139;DHT22;32398;49.112;8.598;2023-04-03T08:44:14;6.20;81.90
46139;DHT22;32398;49.112;8.598;2023-04-03T08:46:45;6.20;81.80
46139;DHT22;32398;49.112;8.598;2023-04-03T08:49:15;6.20;81.60
46139;DHT22;32398;49.112;8.598;2023-04-03T08:51:45;6.20;81.50
46139;DHT22;32398;49.112;8.598;2023-04-03T08:54:15;6.20;81.30
46139;DHT22;32398;49.112;8.598;2023-04-03T08:56:45;6.30;81.30
46139;DHT22;32398;49.112;8.598;2023-04-03T08:59:12;6.30;81.10
46139;DHT22;32398;49.112;8.598;2023-04-03T09:01:40;6.30;80.90
46139;DHT22;32398;49.112;8.598;2023-04-03T09:04:09;6.40;80.70
46139;DHT22;32398;49.112;8.598;2023-04-03T09:06:37;6.40;80.40
46139;DHT22;32398;49.112;8.598;2023-04-03T09:09:07;6.40;80.00
46139;DHT22;32398;49.112;8.598;2023-04-03T09:11:41;6.50;80.10
46139;DHT22;32398;49.112;8.598;2023-04-03T09:14:14;6.50;80.00
46139;DHT22;32398;49.112;8.598;2023-04-03T09:16:43;6.60;79.80
46139;DHT22;32398;49.112;8.598;2023-04-03T09:19:15;6.70;79.40
46139;DHT22;32398;49.112;8.598;2023-04-03T09:21:45;6.70;78.90
46139;DHT22;32398;49.112;8.598;2023-04-03T09:24:12;6.80;78.30
46139;DHT22;32398;49.112;8.598;2023-04-03T09:26:41;6.90;78.20
46139;DHT22;32398;49.112;8.598;2023-04-03T09:29:10;6.90;77.80
46139;DHT22;32398;49.112;8.598;2023-04-03T09:31:41;7.00;77.60
46139;DHT22;32398;49.112;8.598;2023-04-03T09:34:20;7.10;77.30
46139;DHT22;32398;49.112;8.598;2023-04-03T09:36:47;7.20;76.70
46139;DHT22;32398;49.112;8.598;2023-04-03T09:39:15;7.30;76.90
46139;DHT22;32398;49.112;8.598;2023-04-03T09:41:42;7.30;76.50
46139;DHT22;32398;49.112;8.598;2023-04-03T09:44:22;7.40;76.60
46139;DHT22;32398;49.112;8.598;2023-04-03T09:46:50;7.50;76.20
46139;DHT22;32398;49.112;8.598;2023-04-03T09:49:17;7.60;76.10
46139;DHT22;32398;49.112;8.598;2023-04-03T09:51:44;7.60;75.60
46139;DHT22;32398;49.112;8.598;2023-04-03T09:54:30;7.70;75.60
46139;DHT22;32398;49.112;8.598;2023-04-03T09:56:57;7.70;75.70
46139;DHT22;32398;49.112;8.598;2023-04-03T09:59:27;7.80;74.80
46139;DHT22;32398;49.112;8.598;2023-04-03T10:01:58;7.80;74.40
46139;DHT22;32398;49.112;8.598;2023-04-03T10:04:27;7.90;74.80
46139;DHT22;32398;49.112;8.598;2023-04-03T10:07:02;8.00;74.90
46139;DHT22;32398;49.112;8.598;2023-04-03T10:09:29;8.00;74.60
46139;DHT22;32398;49.112;8.598;2023-04-03T10:11:57;8.00;73.50
46139;DHT22;32398;49.112;8.598;2023-04-03T10:14:24;8.00;72.70
46139;DHT22;32398;49.112;8.598;2023-04-03T10:16:52;8.00;72.90
46139;DHT22;32398;49.112;8.598;2023-04-03T10:19:31;8.00;72.20
46139;DHT22;32398;49.112;8.598;2023-04-03T10:21:59;8.10;72.10
46139;DHT22;32398;49.112;8.598;2023-04-03T10:24:31;8.00;72.30
46139;DHT22;32398;49.112;8.598;2023-04-03T10:27:03;8.00;72.50
46139;DHT22;32398;49.112;8.598;2023-04-03T10:29:36;8.00;72.60
46139;DHT22;32398;49.112;8.598;2023-04-03T10:32:10;8.00;72.70
46139;DHT22;32398;49.112;8.598;2023-04-03T10:34:40;8.00;73.60
46139;DHT22;32398;49.112;8.598;2023-04-03T10:37:10;8.00;73.50
46139;DHT22;32398;49.112;8.598;2023-04-03T10:39:42;8.00;73.50
46139;DHT22;32398;49.112;8.598;2023-04-03T10:42:13;8.00;73.50
46139;DHT22;32398;49.112;8.598;2023-04-03T10:44:42;8.00;73.60
46139;DHT22;32398;49.112;8.598;2023-04-03T10:47:15;7.90;72.30
46139;DHT22;32398;49.112;8.598;2023-04-03T10:49:48;7.90;72.40
46139;DHT22;32398;49.112;8.598;2023-04-03T10:52:19;8.00;72.50
46139;DHT22;32398;49.112;8.598;2023-04-03T10:54:46;8.00;72.90
46139;DHT22;32398;49.112;8.598;2023-04-03T10:57:14;8.00;73.10
46139;DHT22;32398;49.112;8.598;2023-04-03T10:59:43;8.00;72.80
46139;DHT22;32398;49.112;8.598;2023-04-03T11:02:13;8.00;73.00
46139;DHT22;32398;49.112;8.598;2023-04-03T11:04:41;8.00;72.60
46139;DHT22;32398;49.112;8.598;2023-04-03T11:07:12;8.00;72.60
46139;DHT22;32398;49.112;8.598;2023-04-03T11:09:42;8.00;72.20
46139;DHT22;32398;49.112;8.598;2023-04-03T11:12:11;8.00;71.30
46139;DHT22;32398;49.112;8.598;2023-04-03T11:14:39;8.00;71.70
46139;DHT22;32398;49.112;8.598;2023-04-03T11:17:09;8.00;71.20
46139;DHT22;32398;49.112;8.598;2023-04-03T11:19:38;8.10;71.60
46139;DHT22;32398;49.112;8.598;2023-04-03T11:22:08;8.10;72.30
46139;DHT22;32398;49.112;8.598;2023-04-03T11:24:39;8.10;71.90
46139;DHT22;32398;49.112;8.598;2023-04-03T11:27:11;8.10;71.80
46139;DHT22;32398;49.112;8.598;2023-04-03T11:29:41;8.10;71.00
46139;DHT22;32398;49.112;8.598;2023-04-03T11:32:16;8.10;70.60
46139;DHT22;32398;49.112;8.598;2023-04-03T11:34:47;8.20;70.30
46139;DHT22;32398;49.112;8.598;2023-04-03T11:37:16;8.20;70.50
46139;DHT22;32398;49.112;8.598;2023-04-03T11:39:48;8.20;71.30
46139;DHT22;32398;49.112;8.598;2023-04-03T11:45:22;8.20;70.80
46139;DHT22;32398;49.112;8.598;2023-04-03T11:47:51;8.20;69.90
46139;DHT22;32398;49.112;8.598;2023-04-03T11:50:31;8.30;71.00
46139;DHT22;32398;49.112;8.598;2023-04-03T11:52:58;8.30;71.00
46139;DHT22;32398;49.112;8.598;2023-04-03T11:58:12;8.30;69.50
46139;DHT22;32398;49.112;8.598;2023-04-03T12:00:46;8.30;70.10
46139;DHT22;32398;49.112;8.598;2023-04-03T12:06:41;8.40;70.30
46139;DHT22;32398;49.112;8.598;2023-04-03T12:08:46;8.40;69.70
46139;DHT22;32398;49.112;8.598;2023-04-03T12:11:21;8.40;69.30
46139;DHT22;32398;49.112;8.598;2023-04-03T12:14:03;8.40;69.40
46139;DHT22;32398;49.112;8.598;2023-04-03T12:16:30;8.40;70.00
46139;DHT22;32398;49.112;8.598;2023-04-03T12:18:59;8.50;69.00
46139;DHT22;32398;49.112;8.598;2023-04-03T12:24:25;8.50;69.40
46139;DHT22;32398;49.112;8.598;2023-04-03T12:27:01;8.50;70.10
46139;DHT22;32398;49.112;8.598;2023-04-03T12:29:29;8.50;69.50
46139;DHT22;32398;49.112;8.598;2023-04-03T12:32:04;8.60;69.10
46139;DHT22;32398;49.112;8.598;2023-04-03T12:37:21;8.60;68.70
46139;DHT22;32398;49.112;8.598;2023-04-03T12:39:56;8.60;69.00
46139;DHT22;32398;49.112;8.598;2023-04-03T12:42:39;8.60;68.90
46139;DHT22;32398;49.112;8.598;2023-04-03T12:45:10;8.60;68.60
46139;DHT22;32398;49.112;8.598;2023-04-03T12:47:39;8.70;68.70
46139;DHT22;32398;49.112;8.598;2023-04-03T12:50:16;8.70;69.00
46139;DHT22;32398;49.112;8.598;2023-04-03T12:52:44;8.70;68.20
46139;DHT22;32398;49.112;8.598;2023-04-03T12:55:15;8.70;68.10
46139;DHT22;32398;49.112;8.598;2023-04-03T12:57:42;8.70;68.90
46139;DHT22;32398;49.112;8.598;2023-04-03T13:00:18;8.70;68.50
46139;DHT22;32398;49.112;8.598;2023-04-03T13:02:45;8.70;68.20
46139;DHT22;32398;49.112;8.598;2023-04-03T13:05:13;8.80;68.80
46139;DHT22;32398;49.112;8.598;2023-04-03T13:07:41;8.70;67.90
46139;DHT22;32398;49.112;8.598;2023-04-03T13:10:13;8.80;66.70
46139;DHT22;32398;49.112;8.598;2023-04-03T13:12:50;8.80;67.30
46139;DHT22;32398;49.112;8.598;2023-04-03T13:15:19;8.90;67.50
46139;DHT22;32398;49.112;8.598;2023-04-03T13:17:45;8.90;67.70
46139;DHT22;32398;49.112;8.598;2023-04-03T13:20:15;9.00;67.40
46139;DHT22;32398;49.112;8.598;2023-04-03T13:22:46;9.00;66.90
46139;DHT22;32398;49.112;8.598;2023-04-03T13:25:14;9.00;65.30
46139;DHT22;32398;49.112;8.598;2023-04-03T13:27:42;9.00;65.00
46139;DHT22;32398;49.112;8.598;2023-04-03T13:30:18;9.10;64.40
46139;DHT22;32398;49.112;8.598;2023-04-03T13:32:46;9.10;65.30
46139;DHT22;32398;49.112;8.598;2023-04-03T13:35:32;9.10;65.00
46139;DHT22;32398;49.112;8.598;2023-04-03T13:38:00;9.10;64.60
46139;DHT22;32398;49.112;8.598;2023-04-03T13:40:27;9.10;64.50
46139;DHT22;32398;49.112;8.598;2023-04-03T13:43:01;9.10;64.90
46139;DHT22;32398;49.112;8.598;2023-04-03T13:45:29;9.10;64.90
46139;DHT22;32398;49.112;8.598;2023-04-03T13:48:07;9.10;65.20
46139;DHT22;32398;49.112;8.598;2023-04-03T13:50:48;9.10;65.40
46139;DHT22;32398;49.112;8.598;2023-04-03T13:53:16;9.00;65.90
46139;DHT22;32398;49.112;8.598;2023-04-03T13:55:51;9.10;65.50
46139;DHT22;32398;49.112;8.598;2023-04-03T13:58:21;9.10;66.40
46139;DHT22;32398;49.112;8.598;2023-04-03T14:00:50;9.00;66.40
46139;DHT22;32398;49.112;8.598;2023-04-03T14:03:19;9.00;65.80
46139;DHT22;32398;49.112;8.598;2023-04-03T14:05:46;9.00;66.10
46139;DHT22;32398;49.112;8.598;2023-04-03T14:08:13;9.00;65.50
46139;DHT22;32398;49.112;8.598;2023-04-03T14:10:39;9.00;65.30
46139;DHT22;32398;49.112;8.598;2023-04-03T14:13:08;9.00;66.10
46139;DHT22;32398;49.112;8.598;2023-04-03T14:15:35;8.90;66.70
46139;DHT22;32398;49.112;8.598;2023-04-03T14:18:03;9.00;65.90
46139;DHT22;32398;49.112;8.598;2023-04-03T14:20:29;9.00;66.10
46139;DHT22;32398;49.112;8.598;2023-04-03T14:22:56;9.00;66.20
46139;DHT22;32398;49.112;8.598;2023-04-03T14:25:23;8.90;66.10
46139;DHT22;32398;49.112;8.598;2023-04-03T14:27:51;9.00;65.70
46139;DHT22;32398;49.112;8.598;2023-04-03T14:30:20;9.00;65.00
46139;DHT22;32398;49.112;8.598;2023-04-03T14:32:47;9.00;64.60
46139;DHT22;32398;49.112;8.598;2023-04-03T14:35:16;8.90;65.10
46139;DHT22;32398;49.112;8.598;2023-04-03T14:37:43;9.00;65.60
46139;DHT22;32398;49.112;8.598;2023-04-03T14:40:11;8.90;65.80
46139;DHT22;32398;49.112;8.598;2023-04-03T14:42:39;9.00;64.40
46139;DHT22;32398;49.112;8.598;2023-04-03T14:45:06;9.00;64.70
46139;DHT22;32398;49.112;8.598;2023-04-03T14:47:43;9.00;65.10
46139;DHT22;32398;49.112;8.598;2023-04-03T14:50:12;9.00;65.70
46139;DHT22;32398;49.112;8.598;2023-04-03T14:52:42;9.10;64.80
46139;DHT22;32398;49.112;8.598;2023-04-03T14:55:12;9.10;65.00
46139;DHT22;32398;49.112;8.598;2023-04-03T14:57:38;9.20;65.40
46139;DHT22;32398;49.112;8.598;2023-04-03T15:00:07;9.20;63.80
46139;DHT22;32398;49.112;8.598;2023-04-03T15:02:37;9.20;63.40
46139;DHT22;32398;49.112;8.598;2023-04-03T15:05:05;9.30;64.40
46139;DHT22;32398;49.112;8.598;2023-04-03T15:07:33;9.30;63.90
46139;DHT22;32398;49.112;8.598;2023-04-03T15:10:03;9.40;63.90
46139;DHT22;32398;49.112;8.598;2023-04-03T15:12:29;9.40;63.70
46139;DHT22;32398;49.112;8.598;2023-04-03T15:14:56;9.40;64.20
46139;DHT22;32398;49.112;8.598;2023-04-03T15:17:22;9.50;64.20
46139;DHT22;32398;49.112;8.598;2023-04-03T15:19:49;9.50;63.70
46139;DHT22;32398;49.112;8.598;2023-04-03T15:22:17;9.50;63.00
46139;DHT22;32398;49.112;8.598;2023-04-03T15:24:44;9.50;63.70
46139;DHT22;32398;49.112;8.598;2023-04-03T15:27:12;9.50;63.80
46139;DHT22;32398;49.112;8.598;2023-04-03T15:29:41;9.60;64.20
46139;DHT22;32398;49.112;8.598;2023-04-03T15:32:08;9.50;63.40
46139;DHT22;32398;49.112;8.598;2023-04-03T15:34:35;9.50;63.00
46139;DHT22;32398;49.112;8.598;2023-04-03T15:37:01;9.50;62.80
46139;DHT22;32398;49.112;8.598;2023-04-03T15:39:28;9.50;62.90
46139;DHT22;32398;49.112;8.598;2023-04-03T15:41:55;9.50;63.70
46139;DHT22;32398;49.112;8.598;2023-04-03T15:44:26;9.60;63.20
46139;DHT22;32398;49.112;8.598;2023-04-03T15:46:52;9.50;62.50
46139;DHT22;32398;49.112;8.598;2023-04-03T15:49:19;9.50;62.20
46139;DHT22;32398;49.112;8.598;2023-04-03T15:51:47;9.50;62.40
46139;DHT22;32398;49.112;8.598;2023-04-03T15:54:13;9.50;62.20
46139;DHT22;32398;49.112;8.598;2023-04-03T15:56:40;9.60;62.40
46139;DHT22;32398;49.112;8.598;2023-04-03T15:59:06;9.60;62.60
46139;DHT22;32398;49.112;8.598;2023-04-03T16:01:34;9.50;61.70
46139;DHT22;32398;49.112;8.598;2023-04-03T16:04:02;9.50;62.00
46139;DHT22;32398;49.112;8.598;2023-04-03T16:06:28;9.50;62.20
46139;DHT22;32398;49.112;8.598;2023-04-03T16:08:57;9.50;61.90